Time;durP1;ratioP1;P1;durP2;ratioP2;P2;SDS_P1;SDS_P2;PMS_P1;PMS_P2;Temp;Humidity;BMP_temperature;BMP_pressure;BME280_temperature;BME280_humidity;BME280_pressure;Samples;Min_cycle;Max_cycle;Signal;HPM_P1;HPM_P2
2021/06/25 00:00:52;;;;;;;38.47;7.78;;;;;;;30.15;63.10;100737.59;5056754;28;66250;-40
2021/06/25 00:03:23;;;;;;;15.23;6.82;;;;;;;30.20;62.91;100737.78;5053118;28;70542;-41
2021/06/25 00:05:54;;;;;;;24.03;7.30;;;;;;;30.16;64.05;100736.53;5071798;27;66136;-41
2021/06/25 00:08:25;;;;;;;30.98;7.75;;;;;;;30.26;63.52;100747.75;5058257;28;69961;-43
2021/06/25 00:10:56;;;;;;;26.10;7.28;;;;;;;30.30;64.14;100744.59;5054198;28;66670;-42
2021/06/25 00:13:27;;;;;;;29.08;7.20;;;;;;;30.35;64.29;100748.31;5055269;28;70826;-45
2021/06/25 00:16:01;;;;;;;31.25;7.65;;;;;;;30.41;64.33;100752.00;5055815;28;64787;-40
2021/06/25 00:18:32;;;;;;;24.42;7.75;;;;;;;30.43;64.62;100745.34;5054181;28;70665;-40
2021/06/25 00:21:05;;;;;;;23.95;7.32;;;;;;;30.47;64.28;100761.94;5054072;28;66402;-41
2021/06/25 00:23:36;;;;;;;17.73;7.07;;;;;;;30.50;64.16;100761.50;5054744;28;69909;-40
2021/06/25 00:26:07;;;;;;;18.15;6.57;;;;;;;30.55;63.79;100761.69;5056600;28;66406;-41
2021/06/25 00:28:38;;;;;;;12.82;6.72;;;;;;;30.55;63.45;100764.38;5057289;28;70803;-41
2021/06/25 00:31:09;;;;;;;21.55;6.78;;;;;;;30.60;63.39;100756.44;5050757;28;66735;-41
2021/06/25 00:33:40;;;;;;;26.00;6.88;;;;;;;30.60;62.97;100761.84;5057285;28;69496;-41
2021/06/25 00:36:11;;;;;;;14.85;6.57;;;;;;;30.64;63.43;100762.22;5052861;28;66864;-41
2021/06/25 00:38:42;;;;;;;22.90;7.43;;;;;;;30.66;62.71;100766.38;5051684;28;69887;-41
2021/06/25 00:41:14;;;;;;;23.53;6.87;;;;;;;30.69;63.13;100765.09;5052674;28;65231;-40
2021/06/25 00:43:45;;;;;;;13.95;6.57;;;;;;;30.67;62.70;100762.63;5051063;28;69257;-40
2021/06/25 00:46:16;;;;;;;12.35;6.47;;;;;;;30.73;62.89;100767.16;5051843;28;65405;-40
2021/06/25 00:48:47;;;;;;;10.90;6.53;;;;;;;30.70;62.72;100767.59;5053318;28;69133;-40
2021/06/25 00:51:18;;;;;;;14.85;7.00;;;;;;;30.61;62.20;100741.84;5048888;28;64187;-41
2021/06/25 00:53:50;;;;;;;11.43;6.10;;;;;;;30.79;62.56;100775.44;5051814;28;69769;-45
2021/06/25 00:56:21;;;;;;;16.45;6.40;;;;;;;30.81;62.48;100766.03;5051184;28;65278;-41
2021/06/25 00:58:52;;;;;;;13.45;5.80;;;;;;;30.80;62.36;100763.59;5051432;28;69835;-40
2021/06/25 01:01:23;;;;;;;19.77;6.60;;;;;;;30.80;62.30;100766.28;5045167;28;65178;-41
2021/06/25 01:03:54;;;;;;;14.63;6.83;;;;;;;30.85;62.38;100774.56;5051481;28;69994;-41
2021/06/25 01:06:28;;;;;;;12.15;5.72;;;;;;;30.81;61.89;100776.06;5049098;28;65531;-41
2021/06/25 01:09:01;;;;;;;14.63;5.68;;;;;;;30.86;62.33;100770.81;5053179;28;69127;-41
2021/06/25 01:11:32;;;;;;;13.77;6.10;;;;;;;30.93;62.15;100777.00;5051784;28;66104;-41
2021/06/25 01:14:04;;;;;;;16.70;6.27;;;;;;;30.92;62.28;100780.75;5052036;28;71142;-42
2021/06/25 01:16:35;;;;;;;8.68;5.53;;;;;;;30.97;62.31;100786.31;5051077;28;66065;-40
2021/06/25 01:19:14;;;;;;;14.17;6.10;;;;;;;30.97;62.72;100805.28;5050530;28;69899;-40
2021/06/25 01:21:45;;;;;;;9.18;5.80;;;;;;;30.94;62.02;100794.91;5049594;28;66172;-40
2021/06/25 01:24:16;;;;;;;14.13;5.65;;;;;;;30.94;62.07;100784.88;5049979;28;69183;-41
2021/06/25 01:26:46;;;;;;;12.57;5.63;;;;;;;31.05;61.79;100801.47;5065213;27;66510;-41
2021/06/25 01:29:20;;;;;;;13.75;6.03;;;;;;;30.86;61.71;100770.81;5049022;28;69490;-42
2021/06/25 01:31:52;;;;;;;8.77;5.13;;;;;;;31.09;61.60;100808.09;5050514;28;66138;-42
2021/06/25 01:34:23;;;;;;;9.52;5.68;;;;;;;31.09;61.89;100811.66;5047889;28;70694;-41
2021/06/25 01:36:54;;;;;;;10.97;5.47;;;;;;;31.10;61.67;100799.75;5052318;28;65959;-41
2021/06/25 01:39:28;;;;;;;11.07;5.23;;;;;;;31.12;61.44;100803.06;5043427;28;68930;-41
2021/06/25 01:41:59;;;;;;;9.23;5.10;;;;;;;31.12;61.57;100803.06;5049722;28;66225;-42
2021/06/25 01:44:30;;;;;;;7.45;5.22;;;;;;;31.16;61.39;100804.25;5067004;28;70177;-41
2021/06/25 01:47:03;;;;;;;6.05;4.47;;;;;;;31.13;61.53;100798.47;5063464;28;66668;-41
2021/06/25 01:49:36;;;;;;;14.48;5.65;;;;;;;31.20;61.12;100806.53;5051673;28;70365;-41
2021/06/25 01:52:07;;;;;;;11.15;6.43;;;;;;;31.23;60.78;100811.50;5052973;28;65249;-42
2021/06/25 01:54:38;;;;;;;11.70;5.22;;;;;;;31.01;61.10;100776.72;5050071;28;69978;-42
2021/06/25 01:57:09;;;;;;;12.20;4.97;;;;;;;31.25;61.13;100812.09;5053910;28;65611;-42
2021/06/25 01:59:44;;;;;;;14.95;5.18;;;;;;;30.96;60.78;100768.44;5053510;28;69048;-41
2021/06/25 02:02:14;;;;;;;8.60;5.20;;;;;;;31.29;60.79;100818.75;5054071;28;65334;-41
2021/06/25 02:04:46;;;;;;;10.93;6.15;;;;;;;31.27;61.01;100820.84;5052475;28;69678;-42
2021/06/25 02:07:17;;;;;;;11.77;5.25;;;;;;;31.33;60.81;100819.94;5051327;28;66076;-42
2021/06/25 02:09:48;;;;;;;8.00;5.25;;;;;;;31.35;60.81;100825.97;5051742;28;69191;-42
2021/06/25 02:12:19;;;;;;;10.25;5.88;;;;;;;31.33;60.60;100814.53;5047308;27;66199;-42
2021/06/25 02:14:50;;;;;;;8.30;5.37;;;;;;;31.40;60.86;100820.75;5064076;27;69985;-42
2021/06/25 02:17:22;;;;;;;9.80;5.40;;;;;;;31.36;60.51;100808.69;5049370;28;65942;-41
2021/06/25 02:19:52;;;;;;;11.23;4.90;;;;;;;31.42;60.64;100813.19;5050325;28;69671;-42
2021/06/25 02:22:32;;;;;;;13.73;5.28;;;;;;;31.44;60.87;100811.09;5051690;28;64911;-42
2021/06/25 02:25:09;;;;;;;7.30;5.43;;;;;;;31.14;60.61;100751.34;5067855;28;69152;-41
2021/06/25 02:27:41;;;;;;;12.82;5.35;;;;;;;31.45;60.56;100804.59;5049437;28;65628;-42
2021/06/25 02:30:17;;;;;;;6.70;5.10;;;;;;;31.51;60.61;100809.16;5049812;28;69721;-42
2021/06/25 02:32:48;;;;;;;9.32;5.05;;;;;;;31.57;60.21;100810.94;5049268;28;67007;-42
2021/06/25 02:35:19;;;;;;;6.95;4.57;;;;;;;31.59;60.12;100803.41;5048622;28;70233;-43
2021/06/25 02:37:54;;;;;;;8.27;4.32;;;;;;;31.63;60.27;100797.53;5048301;28;66133;-41
2021/06/25 02:40:25;;;;;;;6.85;4.63;;;;;;;31.58;60.41;100790.91;5064830;27;69979;-41
2021/06/25 02:42:56;;;;;;;9.50;4.97;;;;;;;31.60;60.39;100794.22;5067620;28;65921;-42
2021/06/25 02:45:28;;;;;;;7.05;4.60;;;;;;;31.67;59.82;100794.13;5062105;27;69877;-41
2021/06/25 02:47:59;;;;;;;6.40;3.90;;;;;;;31.65;60.03;100780.00;5052391;28;65894;-43
2021/06/25 02:50:30;;;;;;;11.60;4.77;;;;;;;31.67;59.83;100771.59;5053517;28;70032;-42
2021/06/25 02:53:02;;;;;;;10.82;4.70;;;;;;;31.76;59.77;100781.06;5050250;28;66201;-44
2021/06/25 02:55:34;;;;;;;5.85;4.55;;;;;;;31.82;59.78;100788.31;5051293;28;69131;-41
2021/06/25 02:58:05;;;;;;;9.10;4.88;;;;;;;31.83;59.64;100777.22;5055576;28;66083;-42
2021/06/25 03:00:36;;;;;;;5.93;3.75;;;;;;;31.85;59.14;100779.72;5051531;28;69756;-42
2021/06/25 03:03:07;;;;;;;6.85;4.40;;;;;;;31.87;59.31;100788.44;5051442;28;66593;-41
2021/06/25 03:05:37;;;;;;;10.45;4.57;;;;;;;31.86;59.40;100775.94;5053738;28;69215;-41
2021/06/25 03:08:08;;;;;;;5.00;4.30;;;;;;;31.94;59.10;100785.69;5054587;28;65955;-42
2021/06/25 03:10:42;;;;;;;9.85;5.03;;;;;;;31.56;58.97;100719.78;5051352;28;70420;-41
2021/06/25 03:13:14;;;;;;;6.22;4.78;;;;;;;31.98;59.32;100785.00;5054255;28;65679;-41
2021/06/25 03:15:45;;;;;;;6.13;3.97;;;;;;;32.00;59.30;100793.72;5051072;28;70065;-41
2021/06/25 03:18:16;;;;;;;;;;;;;;;31.81;59.33;100789.34;5055738;28;66376;-45
2021/06/25 03:20:48;;;;;;;6.65;4.60;;;;;;;31.95;59.03;100776.47;5050646;28;69080;-41
2021/06/25 03:23:19;;;;;;;8.20;4.80;;;;;;;32.04;59.12;100789.50;5053283;28;65613;-41
2021/06/25 03:25:50;;;;;;;7.17;4.70;;;;;;;32.08;59.21;100789.03;5054838;28;69956;-42
2021/06/25 03:28:21;;;;;;;9.67;5.03;;;;;;;32.02;58.87;100779.94;5053829;28;66238;-41
2021/06/25 03:30:52;;;;;;;5.13;4.30;;;;;;;32.08;58.85;100783.59;5051358;28;69996;-40
2021/06/25 03:33:23;;;;;;;5.13;4.10;;;;;;;31.81;58.42;100737.81;5054797;28;66460;-42
2021/06/25 03:35:54;;;;;;;9.35;4.38;;;;;;;32.13;58.79;100786.47;5051691;28;70150;-42
2021/06/25 03:38:25;;;;;;;7.32;4.15;;;;;;;32.17;58.89;100782.22;5051758;28;66890;-41
2021/06/25 03:40:56;;;;;;;6.53;4.43;;;;;;;32.17;58.52;100782.22;5051789;28;69838;-42
2021/06/25 03:43:27;;;;;;;4.90;3.83;;;;;;;32.17;58.67;100776.78;5051815;28;66895;-42
2021/06/25 03:45:59;;;;;;;;;;;;;;;31.99;58.81;100781.22;5052746;28;70439;-41
2021/06/25 03:48:29;;;;;;;4.25;3.55;;;;;;;32.14;58.38;100769.13;5055521;28;65353;-41
2021/06/25 03:51:00;;;;;;;7.00;4.25;;;;;;;32.24;58.32;100780.25;5052092;28;69762;-41
2021/06/25 03:53:31;;;;;;;4.63;4.20;;;;;;;32.25;58.55;100768.31;5071462;27;66228;-41
2021/06/25 03:56:11;;;;;;;5.50;4.03;;;;;;;32.24;58.36;100761.25;5067850;27;69774;-41
2021/06/25 03:58:48;;;;;;;4.88;3.97;;;;;;;32.30;57.86;100764.91;5050175;28;65341;-40
2021/06/25 04:01:21;;;;;;;3.95;3.53;;;;;;;32.28;57.91;100759.69;5051414;28;70043;-42
2021/06/25 04:03:52;;;;;;;5.03;3.80;;;;;;;32.35;57.99;100763.16;5052523;28;66177;-41
2021/06/25 04:06:23;;;;;;;7.75;3.75;;;;;;;32.37;58.15;100769.16;5051941;28;69834;-41
2021/06/25 04:08:54;;;;;;;7.00;3.88;;;;;;;32.33;58.19;100759.00;5069773;27;65234;-41
2021/06/25 04:11:25;;;;;;;5.13;3.83;;;;;;;32.40;58.28;100760.56;5047252;28;70221;-40
2021/06/25 04:13:56;;;;;;;7.72;4.35;;;;;;;32.40;57.95;100749.72;5051428;28;66033;-41
2021/06/25 04:16:26;;;;;;;8.65;3.80;;;;;;;32.41;57.92;100735.06;5050842;28;69912;-41
2021/06/25 04:18:58;;;;;;;6.80;3.67;;;;;;;32.40;57.93;100732.56;5049852;28;64835;-41
2021/06/25 04:21:29;;;;;;;4.60;3.70;;;;;;;32.52;57.87;100752.47;5050852;28;70149;-40
2021/06/25 04:24:00;;;;;;;6.65;4.22;;;;;;;32.55;57.82;100748.47;5055234;28;65011;-41
2021/06/25 04:26:31;;;;;;;7.75;4.13;;;;;;;32.48;57.51;100732.25;5048567;28;69904;-41
2021/06/25 04:29:07;;;;;;;5.90;3.80;;;;;;;32.61;57.56;100739.38;5052406;28;65271;-42
2021/06/25 04:31:45;;;;;;;5.47;3.40;;;;;;;32.63;57.30;100734.53;5051156;28;70030;-42
2021/06/25 04:34:16;;;;;;;7.40;3.65;;;;;;;32.67;57.34;100738.41;5052107;28;64837;-41
2021/06/25 04:36:49;;;;;;;10.15;3.53;;;;;;;32.63;57.46;100729.91;5052613;28;69789;-42
2021/06/25 04:39:21;;;;;;;;;;;;;;;32.48;57.81;100724.97;5051049;28;66310;-41
2021/06/25 04:41:52;;;;;;;6.25;3.80;;;;;;;32.65;57.35;100724.22;5053135;27;70006;-42
2021/06/25 04:44:22;;;;;;;4.00;3.53;;;;;;;32.71;57.55;100717.88;5052358;28;65848;-42
2021/06/25 04:46:53;;;;;;;5.75;3.50;;;;;;;32.72;57.18;100703.22;5065745;28;70439;-42
2021/06/25 04:49:24;;;;;;;4.70;3.55;;;;;;;32.73;57.23;100699.44;5052556;28;65534;-42
2021/06/25 04:51:55;;;;;;;4.40;3.40;;;;;;;32.76;57.11;100698.97;5051308;28;69102;-41
2021/06/25 04:54:26;;;;;;;4.97;3.45;;;;;;;32.76;57.41;100688.09;5051539;28;66652;-41
2021/06/25 04:56:57;;;;;;;6.47;3.95;;;;;;;32.80;57.02;100683.84;5053411;28;69986;-41
2021/06/25 04:59:29;;;;;;;3.70;3.40;;;;;;;32.81;57.21;100680.06;5073552;27;65871;-42
2021/06/25 05:01:59;;;;;;;6.88;3.70;;;;;;;32.81;57.28;100676.53;5051173;28;69811;-42
2021/06/25 05:04:31;;;;;;;4.43;3.38;;;;;;;32.84;57.17;100668.72;5050068;28;65745;-42
2021/06/25 05:07:02;;;;;;;3.15;2.85;;;;;;;32.85;56.97;100670.38;5050082;28;69817;-42
2021/06/25 05:09:33;;;;;;;4.07;3.10;;;;;;;32.89;56.88;100674.25;5050753;28;65411;-41
2021/06/25 05:12:04;;;;;;;6.82;3.13;;;;;;;32.88;56.80;100669.91;5049010;28;69927;-41
2021/06/25 05:14:35;;;;;;;3.78;3.08;;;;;;;32.91;56.77;100664.00;5052299;28;66103;-41
2021/06/25 05:17:06;;;;;;;4.13;3.42;;;;;;;32.94;56.76;100657.25;5050507;28;69202;-41
2021/06/25 05:19:39;;;;;;;3.88;2.90;;;;;;;32.97;56.67;100651.34;5053192;28;66007;-43
2021/06/25 05:22:10;;;;;;;5.82;2.83;;;;;;;32.98;56.78;100652.16;5051763;28;69963;-44
2021/06/25 05:24:42;;;;;;;4.10;2.88;;;;;;;32.94;56.15;100636.34;5036197;28;64698;-42
2021/06/25 05:27:13;;;;;;;3.28;2.97;;;;;;;33.04;56.51;100645.78;5052069;28;70464;-41
2021/06/25 05:29:44;;;;;;;5.22;3.38;;;;;;;33.04;56.44;100641.19;5053450;28;66149;-41
2021/06/25 05:32:15;;;;;;;4.32;3.30;;;;;;;33.07;56.44;100634.44;5051093;28;69187;-42
2021/06/25 05:34:46;;;;;;;5.57;3.10;;;;;;;33.08;56.36;100636.09;5051567;28;65535;-41
2021/06/25 05:37:18;;;;;;;5.85;3.65;;;;;;;33.10;56.28;100633.97;5049070;28;69283;-41
2021/06/25 05:39:50;;;;;;;3.00;2.65;;;;;;;33.03;55.96;100611.53;5052708;28;66064;-41
2021/06/25 05:42:22;;;;;;;5.20;3.08;;;;;;;33.19;56.25;100632.50;5049223;28;69954;-41
2021/06/25 05:44:53;;;;;;;3.40;2.88;;;;;;;33.20;56.12;100633.34;5044309;28;65495;-41
2021/06/25 05:47:24;;;;;;;5.43;2.40;;;;;;;33.21;55.88;100630.38;5051156;28;70636;-41
2021/06/25 05:49:56;;;;;;;3.15;2.35;;;;;;;33.22;55.83;100626.59;5047782;28;65377;-41
2021/06/25 05:52:29;;;;;;;3.50;2.47;;;;;;;33.28;55.94;100625.63;5052050;28;69708;-42
2021/06/25 05:55:00;;;;;;;3.10;2.80;;;;;;;33.30;55.89;100626.22;5052801;28;65241;-43
2021/06/25 05:57:31;;;;;;;3.53;2.77;;;;;;;33.30;55.95;100623.50;5051136;28;70191;-41
2021/06/25 06:00:03;;;;;;;4.13;3.00;;;;;;;33.32;55.91;100626.78;5050319;28;66175;-41
2021/06/25 06:02:34;;;;;;;7.20;3.35;;;;;;;33.31;55.50;100619.69;5050709;28;70185;-41
2021/06/25 06:05:06;;;;;;;3.10;2.80;;;;;;;33.38;55.17;100625.00;5051542;28;66005;-41
2021/06/25 06:07:37;;;;;;;4.22;3.38;;;;;;;33.38;55.56;100614.94;5051941;28;70647;-41
2021/06/25 06:10:12;;;;;;;7.90;2.53;;;;;;;33.42;55.75;100619.88;5048193;28;65673;-42
2021/06/25 06:12:44;;;;;;;3.72;2.70;;;;;;;33.47;55.50;100623.53;5050750;28;69902;-41
2021/06/25 06:15:17;;;;;;;7.25;2.80;;;;;;;33.49;55.41;100620.53;5050991;28;65441;-41
2021/06/25 06:17:50;;;;;;;6.35;2.88;;;;;;;33.52;55.42;100603.75;5048217;28;69714;-41
2021/06/25 06:20:25;;;;;;;5.13;3.15;;;;;;;33.54;55.35;100609.78;5051456;28;66586;-42
2021/06/25 06:31:26;;;;;;;5.90;2.67;;;;;;;33.69;55.10;100587.50;5051831;28;66242;-41
2021/06/25 06:33:59;;;;;;;5.57;2.47;;;;;;;33.68;55.29;100564.88;5049677;28;68652;-42
2021/06/25 06:36:33;;;;;;;4.50;2.92;;;;;;;33.68;55.16;100556.72;5052075;28;66269;-43
2021/06/25 06:39:06;;;;;;;3.53;2.63;;;;;;;33.81;55.16;100570.00;5050260;28;69756;-45
2021/06/25 06:41:41;;;;;;;5.28;3.15;;;;;;;33.84;55.00;100567.88;5065071;28;66469;-41
2021/06/25 06:44:12;;;;;;;4.50;2.92;;;;;;;33.87;55.07;100551.03;5049665;28;70521;-40
2021/06/25 06:46:43;;;;;;;4.72;2.75;;;;;;;33.86;54.84;100539.34;5050107;28;66582;-41
2021/06/25 06:49:14;;;;;;;2.65;2.45;;;;;;;33.94;54.79;100549.00;5049833;28;69885;-44
2021/06/25 06:51:45;;;;;;;5.95;3.05;;;;;;;33.92;54.69;100537.50;5051748;28;66107;-42
2021/06/25 06:54:16;;;;;;;4.20;3.17;;;;;;;34.02;54.77;100538.50;5062980;27;70767;-42
2021/06/25 06:56:48;;;;;;;2.58;2.33;;;;;;;34.07;54.60;100529.59;5052071;28;65111;-41
2021/06/25 06:59:19;;;;;;;2.83;2.63;;;;;;;34.10;54.37;100523.69;5048442;28;69032;-40
2021/06/25 07:01:51;;;;;;;4.78;2.83;;;;;;;34.13;54.19;100517.72;5048769;28;65235;-41
2021/06/25 07:04:39;;;;;;;6.85;2.50;;;;;;;34.21;54.33;100502.84;5051536;28;70264;-41
2021/06/25 07:07:10;;;;;;;3.28;2.17;;;;;;;34.17;54.20;100497.09;5050609;28;66553;-42
2021/06/25 07:09:41;;;;;;;2.80;2.10;;;;;;;34.28;53.69;100508.09;5050573;28;69173;-42
2021/06/25 07:12:13;;;;;;;3.80;2.10;;;;;;;33.97;53.40;100445.91;5048452;28;66471;-42
2021/06/25 07:14:44;;;;;;;8.13;2.80;;;;;;;34.16;53.63;100473.66;5050718;28;70212;-42
2021/06/25 07:17:15;;;;;;;4.43;2.90;;;;;;;34.26;53.71;100483.84;5051816;28;67681;-42
2021/06/25 07:19:48;;;;;;;3.47;2.47;;;;;;;34.35;53.73;100506.00;5046848;28;70654;-42
2021/06/25 07:22:19;;;;;;;3.50;2.47;;;;;;;34.36;53.57;100502.22;5049226;28;65274;-42
2021/06/25 07:24:51;;;;;;;4.47;3.00;;;;;;;34.41;53.59;100507.75;5044842;28;69987;-41
2021/06/25 07:27:21;;;;;;;3.53;2.43;;;;;;;34.25;53.86;100487.66;5045154;28;66214;-41
2021/06/25 07:29:52;;;;;;;3.97;2.83;;;;;;;34.36;53.68;100510.41;5048439;28;69569;-42
2021/06/25 07:32:25;;;;;;;4.23;3.00;;;;;;;34.40;53.60;100511.53;5051606;28;66252;-40
2021/06/25 07:34:56;;;;;;;5.97;2.92;;;;;;;34.42;53.81;100506.66;5053634;28;69919;-41
2021/06/25 07:37:28;;;;;;;2.87;2.60;;;;;;;34.42;53.63;100501.22;5053981;28;66246;-42
2021/06/25 07:39:59;;;;;;;8.82;2.78;;;;;;;34.35;53.11;100492.41;5052958;28;69910;-41
2021/06/25 07:42:31;;;;;;;3.22;2.92;;;;;;;34.04;53.50;100432.09;5052776;28;66215;-42
2021/06/25 07:45:07;;;;;;;5.53;2.63;;;;;;;34.42;53.23;100488.41;5052749;28;69799;-42
2021/06/25 07:47:40;;;;;;;5.63;2.83;;;;;;;34.44;53.28;100490.88;5047684;28;66049;-41
2021/06/25 07:50:17;;;;;;;4.07;2.30;;;;;;;34.40;53.09;100481.56;5049386;28;69193;-42
2021/06/25 07:52:48;;;;;;;6.68;3.25;;;;;;;34.40;53.38;100484.28;5048736;28;65815;-42
2021/06/25 07:55:19;;;;;;;3.85;2.83;;;;;;;34.41;53.47;100488.69;5051294;28;70337;-41
2021/06/25 07:57:50;;;;;;;5.60;2.70;;;;;;;34.38;53.55;100472.81;5053347;28;66076;-41
2021/06/25 08:00:21;;;;;;;3.60;2.80;;;;;;;34.34;53.22;100475.25;5052101;28;69993;-41
2021/06/25 08:02:52;;;;;;;4.10;2.70;;;;;;;34.39;53.85;100472.59;5051904;28;65970;-41
2021/06/25 08:05:23;;;;;;;3.58;2.53;;;;;;;34.38;53.83;100481.84;5051903;28;70104;-42
2021/06/25 08:07:54;;;;;;;4.75;3.03;;;;;;;34.37;53.91;100479.34;5048831;28;65324;-41
2021/06/25 08:10:24;;;;;;;5.80;2.83;;;;;;;34.34;53.88;100477.16;5052811;28;69866;-41
2021/06/25 08:12:56;;;;;;;5.40;3.20;;;;;;;34.31;53.80;100474.94;5049010;28;65727;-42
2021/06/25 08:15:27;;;;;;;3.00;2.70;;;;;;;34.31;53.93;100483.91;5050380;28;69284;-42
2021/06/25 08:17:58;;;;;;;4.45;2.42;;;;;;;34.34;53.88;100502.47;5051046;28;66050;-41
2021/06/25 08:20:29;;;;;;;4.37;2.80;;;;;;;34.29;54.26;100504.31;5054020;27;70050;-41
2021/06/25 08:23:01;;;;;;;4.70;2.80;;;;;;;34.29;53.86;100521.47;5051482;28;66567;-41
2021/06/25 08:25:32;;;;;;;3.37;2.57;;;;;;;34.18;53.88;100498.72;5053724;28;69220;-41
2021/06/25 08:28:04;;;;;;;3.60;3.20;;;;;;;34.24;53.92;100526.81;5049938;28;65285;-41
2021/06/25 08:30:35;;;;;;;6.70;3.35;;;;;;;34.22;54.01;100537.97;5051471;28;69931;-41
2021/06/25 08:33:08;;;;;;;4.72;3.30;;;;;;;34.18;54.27;100536.81;5051726;28;66115;-41
2021/06/25 08:35:38;;;;;;;4.32;3.33;;;;;;;34.12;54.15;100518.78;5050974;28;70737;-41
2021/06/25 08:38:09;;;;;;;7.95;3.55;;;;;;;34.13;54.39;100531.34;5053254;28;65159;-41
2021/06/25 08:40:40;;;;;;;8.10;3.40;;;;;;;34.07;54.63;100535.03;5054958;28;70183;-41
2021/06/25 08:43:11;;;;;;;6.15;3.63;;;;;;;34.00;54.58;100528.94;5049539;28;66087;-41
2021/06/25 08:45:43;;;;;;;3.50;3.20;;;;;;;34.07;54.71;100539.66;5051004;28;69565;-41
2021/06/25 08:48:17;;;;;;;3.53;3.22;;;;;;;34.07;54.76;100545.91;5049125;28;65909;-41
2021/06/25 08:50:54;;;;;;;4.50;3.75;;;;;;;33.99;54.93;100539.00;5050869;28;70032;-41
2021/06/25 08:53:25;;;;;;;3.80;3.50;;;;;;;34.01;55.12;100541.47;5067449;28;65737;-41
2021/06/25 08:55:56;;;;;;;9.00;4.40;;;;;;;33.96;55.30;100544.09;5049405;28;69881;-41
2021/06/25 08:58:27;;;;;;;4.90;4.50;;;;;;;33.96;55.34;100541.38;5050237;28;65187;-41
2021/06/25 09:00:59;;;;;;;6.50;4.30;;;;;;;33.85;55.40;100523.25;5055700;28;70110;-42
2021/06/25 09:03:33;;;;;;;6.15;4.45;;;;;;;33.89;55.46;100529.84;5051817;28;66118;-41
2021/06/25 09:06:11;;;;;;;5.70;4.55;;;;;;;33.88;55.87;100515.44;5049994;28;69483;-41
2021/06/25 09:08:43;;;;;;;5.88;4.95;;;;;;;33.87;55.52;100511.03;5050881;28;65534;-41
2021/06/25 09:11:25;;;;;;;5.03;4.63;;;;;;;33.49;55.72;100438.34;5049907;28;71582;-41
2021/06/25 09:14:01;;;;;;;9.30;5.05;;;;;;;33.84;55.92;100478.09;5053626;28;66093;-41
2021/06/25 09:16:34;;;;;;;5.05;4.45;;;;;;;33.81;55.77;100446.75;5047100;28;70553;-41
2021/06/25 09:19:07;;;;;;;7.00;5.22;;;;;;;33.79;55.89;100451.63;5049590;28;66009;-41
2021/06/25 09:21:58;;;;;;;5.30;4.80;;;;;;;33.48;55.91;100401.38;5048749;28;70067;-41
2021/06/25 09:24:30;;;;;;;7.35;4.80;;;;;;;33.74;55.74;100454.25;5050437;28;66209;-41
2021/06/25 09:27:03;;;;;;;7.53;5.70;;;;;;;33.18;56.01;100369.94;5050922;27;69631;-42
2021/06/25 09:29:37;;;;;;;5.43;5.03;;;;;;;33.71;56.35;100458.34;5049331;28;65357;-40
2021/06/25 09:32:11;;;;;;;5.47;4.97;;;;;;;33.65;55.84;100453.88;5051633;28;68996;-41
2021/06/25 09:34:45;;;;;;;5.38;4.97;;;;;;;33.68;56.10;100461.53;5050426;28;65468;-43
2021/06/25 09:37:18;;;;;;;5.88;5.38;;;;;;;33.64;56.23;100457.66;5053900;28;69828;-42
2021/06/25 09:40:04;;;;;;;5.15;4.82;;;;;;;33.56;56.43;100463.53;5051372;28;65266;-41
2021/06/25 09:42:35;;;;;;;5.93;5.43;;;;;;;33.55;56.22;100456.47;5051438;28;70297;-41
2021/06/25 09:45:31;;;;;;;5.40;5.00;;;;;;;33.51;56.57;100474.28;5050937;28;65408;-41
2021/06/25 09:48:03;;;;;;;5.55;5.13;;;;;;;33.59;56.26;100482.06;5047058;28;69809;-41
2021/06/25 09:50:34;;;;;;;9.60;5.55;;;;;;;33.58;56.29;100483.97;5066131;27;66397;-41
2021/06/25 09:53:07;;;;;;;5.82;5.43;;;;;;;33.56;56.51;100471.69;5073853;27;68821;-42
2021/06/25 09:55:56;;;;;;;6.10;5.60;;;;;;;33.56;56.44;100477.13;5050565;28;66149;-41
2021/06/25 09:58:33;;;;;;;6.78;5.60;;;;;;;33.52;56.23;100462.38;5063029;28;69894;-41
2021/06/25 10:01:24;;;;;;;5.43;5.03;;;;;;;33.54;56.56;100466.50;5051687;28;65624;-41
2021/06/25 10:03:58;;;;;;;6.65;5.22;;;;;;;33.25;56.55;100424.13;5050778;28;69713;-41
2021/06/25 10:06:31;;;;;;;6.00;5.40;;;;;;;33.50;56.62;100464.50;5053071;28;66230;-42
2021/06/25 10:09:04;;;;;;;5.90;5.50;;;;;;;33.40;56.67;100448.00;5051311;28;70377;-42
2021/06/25 10:11:35;;;;;;;14.48;5.85;;;;;;;33.47;56.90;100465.00;5054266;28;65822;-41
2021/06/25 10:14:06;;;;;;;11.80;7.22;;;;;;;33.39;57.42;100463.50;5047775;28;70168;-40
2021/06/25 10:16:37;;;;;;;23.25;8.27;;;;;;;33.36;57.44;100475.69;5047835;28;65243;-41
2021/06/25 10:19:17;;;;;;;17.00;8.48;;;;;;;33.21;57.51;100461.88;5051468;28;69650;-42
2021/06/25 10:21:48;;;;;;;;;;;;;;;32.92;58.36;100459.16;5047836;28;66539;-40
2021/06/25 10:24:19;;;;;;;24.47;10.20;;;;;;;33.20;57.79;100481.94;5051096;28;68519;-40
2021/06/25 10:26:51;;;;;;;21.27;9.77;;;;;;;33.03;57.68;100456.66;5055569;28;65591;-40
2021/06/25 10:29:22;;;;;;;14.10;10.37;;;;;;;33.17;57.40;100492.50;5051239;28;70747;-40
2021/06/25 10:31:55;;;;;;;23.07;10.10;;;;;;;33.07;57.61;100493.13;5050246;28;64718;-41
2021/06/25 10:34:26;;;;;;;27.98;10.07;;;;;;;33.05;57.70;100492.56;5046464;28;69143;-41
2021/06/25 10:36:57;;;;;;;20.08;10.30;;;;;;;33.11;57.90;100516.03;5049699;28;65039;-40
2021/06/25 10:39:30;;;;;;;15.82;9.63;;;;;;;33.08;57.92;100511.91;5049209;28;69708;-39
2021/06/25 10:42:04;;;;;;;30.23;10.80;;;;;;;32.50;58.07;100412.47;5050961;28;65907;-41
2021/06/25 10:44:47;;;;;;;32.20;12.35;;;;;;;32.73;58.16;100455.00;5046060;28;69971;-41
2021/06/25 10:47:18;;;;;;;;;;;;;;;32.71;59.03;100492.47;5045772;28;66353;-39
2021/06/25 10:50:02;;;;;;;37.05;13.15;;;;;;;32.94;58.32;100505.91;5048562;28;70760;-44
2021/06/25 10:52:37;;;;;;;25.45;13.43;;;;;;;32.92;58.35;100502.63;5042880;28;65911;-42
2021/06/25 10:55:11;;;;;;;33.60;12.32;;;;;;;32.95;58.34;100512.19;5049247;28;71184;-39
2021/06/25 10:58:05;;;;;;;19.52;11.98;;;;;;;32.88;58.80;100509.63;5047653;28;65942;-40
2021/06/25 11:00:39;;;;;;;28.92;13.68;;;;;;;32.97;58.65;100517.38;5036368;28;70168;-41
2021/06/25 11:03:32;;;;;;;46.92;12.93;;;;;;;32.92;58.83;100529.78;5046838;28;65262;-41
2021/06/25 11:06:06;;;;;;;39.15;14.88;;;;;;;32.51;58.75;100448.59;5051365;28;70575;-39
2021/06/25 11:09:01;;;;;;;27.05;14.65;;;;;;;32.93;58.69;100536.03;5053613;28;66429;-40
2021/06/25 11:11:32;;;;;;;24.30;14.43;;;;;;;32.98;58.26;100532.59;5049018;28;69999;-43
2021/06/25 11:14:04;;;;;;;43.80;13.13;;;;;;;32.99;58.38;100528.81;5050055;28;65750;-40
2021/06/25 11:16:34;;;;;;;29.60;13.23;;;;;;;32.94;59.01;100516.78;5067671;27;69170;-43
2021/06/25 11:19:26;;;;;;;21.20;12.25;;;;;;;32.90;58.65;100526.50;5047158;28;67536;-41
2021/06/25 11:21:57;;;;;;;16.17;12.05;;;;;;;32.99;59.03;100528.81;5050960;28;69988;-40
2021/06/25 11:24:47;;;;;;;19.77;12.18;;;;;;;32.93;59.50;100531.44;5054996;28;66458;-40
2021/06/25 11:27:18;;;;;;;23.25;12.02;;;;;;;33.00;59.08;100530.50;5053071;28;70093;-42
2021/06/25 11:29:49;;;;;;;25.98;11.73;;;;;;;33.01;59.13;100529.44;5053559;28;65225;-41
2021/06/25 11:32:29;;;;;;;19.90;12.10;;;;;;;32.60;59.60;100471.59;5047993;28;69800;-42
2021/06/25 11:35:37;;;;;;;32.30;12.95;;;;;;;32.96;60.05;100543.72;5051131;28;66065;-42
2021/06/25 11:38:11;;;;;;;20.85;12.48;;;;;;;32.99;59.96;100539.69;5055367;28;70030;-41
2021/06/25 11:40:51;;;;;;;27.70;11.75;;;;;;;33.02;60.15;100550.94;5071751;27;66276;-42
2021/06/25 11:43:21;;;;;;;18.20;12.35;;;;;;;33.03;60.12;100549.03;5054451;28;69416;-42
2021/06/25 11:45:52;;;;;;;24.05;12.55;;;;;;;33.02;60.51;100567.25;5054921;27;65168;-42
2021/06/25 11:48:23;;;;;;;21.10;12.95;;;;;;;32.92;60.57;100562.38;5052453;28;69057;-42
2021/06/25 11:50:58;;;;;;;18.97;12.27;;;;;;;33.04;60.82;100586.00;5051370;28;66092;-42
2021/06/25 11:53:33;;;;;;;18.45;12.32;;;;;;;32.72;60.88;100542.97;5050341;28;70160;-41
2021/06/25 11:56:04;;;;;;;21.38;13.15;;;;;;;32.98;60.88;100592.38;5043405;28;66299;-42